MDT,Max TemperatureF,Mean TemperatureF,Min TemperatureF,Max Dew PointF,MeanDew PointF,Min DewpointF,Max Humidity, Mean Humidity, Min Humidity, Max Sea Level PressureIn, Mean Sea Level PressureIn, Min Sea Level PressureIn, Max VisibilityMiles, Mean VisibilityMiles, Min VisibilityMiles, Max Wind SpeedMPH, Mean Wind SpeedMPH, Max Gust SpeedMPH,PrecipitationIn, CloudCover, Events, WindDirDegrees
2013-6-1,81,61,41,33,29,26,62,31,14,30.19,30.06,29.86,10,10,10,17,8,24,0.00,0,,57
2013-6-2,80,65,49,41,34,22,57,33,14,29.88,29.78,29.69,10,10,10,38,11,46,0.00,1,,325
2013-6-3,77,63,48,37,30,21,61,29,13,30.04,29.96,29.88,10,10,10,21,14,25,0.00,0,,308
2013-6-4,80,63,46,36,31,27,53,28,15,30.05,29.98,29.93,10,10,10,17,9,24,0.00,0,,312
2013-6-5,88,69,49,36,31,26,53,26,10,30.05,29.98,29.89,10,10,10,21,8,26,0.00,0,,353
2013-6-6,95,74,52,38,34,31,48,24,12,30.12,29.89,29.80,10,10,10,16,6,23,0.00,1,,321
2013-6-7,93,76,58,49,39,33,48,28,13,29.90,29.86,29.78,10,8,7,22,9,34,0.00,0,,317
2013-6-8,87,73,59,46,34,8,49,30,5,29.96,29.92,29.83,10,10,10,25,21,31,0.00,0,,300
2013-6-9,94,74,54,38,34,30,43,27,13,29.91,29.87,29.74,10,10,10,12,6,21,0.00,0,,301
2013-6-10,91,77,63,36,33,30,30,19,12,29.70,29.62,29.50,10,10,10,23,13,34,0.00,4,,310
2013-6-11,89,72,55,41,37,31,36,24,15,29.79,29.76,29.73,10,10,10,22,7,28,0.00,2,,307
2013-6-12,84,67,51,43,36,32,54,30,15,29.93,29.84,29.74,10,10,7,18,7,24,T,2,Rain,328
2013-6-13,69,62,52,39,34,28,55,34,22,30.11,30.00,29.88,10,10,7,29,18,37,T,6,Rain,304
2013-6-14,72,57,42,35,31,22,66,44,16,30.22,30.17,30.07,10,10,10,15,9,25,0.00,1,,305
2013-6-15,81,61,40,29,25,20,59,30,12,30.04,30.00,29.91,10,10,10,13,7,,0.00,0,,103
2013-6-16,90,69,47,33,27,17,42,19,7,29.93,29.90,29.84,10,10,10,12,7,,0.00,0,,111
2013-6-17,91,74,57,39,32,21,39,19,8,29.95,29.85,29.70,10,10,10,13,8,,0.00,1,,315
2013-6-18,86,71,56,43,33,25,38,23,11,29.82,29.67,29.51,10,9,2,45,12,58,0.00,4,,320
2013-6-19,69,56,43,45,39,34,88,54,30,30.07,29.90,29.62,10,10,9,30,19,32,0.01,5,Rain,308
2013-6-20,71,54,37,42,37,29,95,56,23,30.07,30.01,29.58,10,10,6,21,6,31,T,3,Rain,311
2013-6-21,71,60,49,43,36,30,62,41,24,30.05,30.02,29.98,10,10,10,26,12,33,T,6,Rain,296
2013-6-22,76,59,41,41,37,30,83,49,21,30.09,30.02,29.90,10,10,10,13,7,18,0.00,0,,307
2013-6-23,88,67,46,40,33,28,59,31,12,29.94,29.73,29.54,10,10,10,16,7,20,0.00,3,,86
2013-6-24,77,68,58,57,48,36,91,55,22,29.81,29.70,29.60,10,10,4,23,11,28,0.11,6,Rain,113
2013-6-25,73,64,55,61,56,51,99,76,50,29.95,29.89,29.79,10,9,2,16,8,,0.13,7,Rain,89
2013-6-26,89,74,59,62,55,46,100,70,24,30.05,29.98,29.90,10,10,10,13,5,,0.00,3,,78
2013-6-27,98,78,58,58,51,42,88,45,15,30.19,30.07,29.99,10,10,10,16,7,,0.00,0,,320
2013-6-28,104,82,59,52,45,32,62,30,8,30.10,30.01,29.86,10,10,10,26,7,39,0.00,1,,298
2013-6-29,106,88,70,55,46,38,43,22,10,29.93,29.85,29.75,10,10,10,18,8,29,0.00,2,,326
2013-6-30,106,88,70,61,52,39,64,35,11,29.96,29.87,29.76,10,10,10,15,7,,0.00,0,,11